Time;durP1;ratioP1;P1;durP2;ratioP2;P2;SDS_P1;SDS_P2;PMS_P1;PMS_P2;Temp;Humidity;BMP_temperature;BMP_pressure;BME280_temperature;BME280_humidity;BME280_pressure;Samples;Min_cycle;Max_cycle;Signal;HPM_P1;HPM_P2
2023/12/17 00:01:43;;;;;;;10.32;5.00;;;;;;;7.51;68.22;102716.78;10280456;28;20049;-62
2023/12/17 00:06:44;;;;;;;13.43;6.22;;;;;;;7.49;68.26;102708.00;10286092;28;20507;-62
2023/12/17 00:11:45;;;;;;;15.85;5.70;;;;;;;7.46;68.27;102693.97;10285066;28;20381;-62
2023/12/17 00:16:47;;;;;;;12.20;5.40;;;;;;;7.50;68.37;102700.81;10283277;28;20051;-62
2023/12/17 00:21:48;;;;;;;13.45;4.57;;;;;;;7.59;68.50;102696.72;10285051;28;20042;-62
2023/12/17 00:26:50;;;;;;;10.00;4.20;;;;;;;7.55;68.71;102717.47;10286303;28;20126;-62
2023/12/17 00:31:51;;;;;;;13.40;5.43;;;;;;;7.67;68.15;102721.19;10287208;28;20078;-63
2023/12/17 00:37:01;;;;;;;10.80;4.63;;;;;;;7.78;67.88;102732.06;10286119;28;20074;-62
2023/12/17 00:42:03;;;;;;;15.75;5.25;;;;;;;7.82;68.08;102738.06;10287596;28;20031;-62
2023/12/17 00:47:05;;;;;;;11.48;4.60;;;;;;;7.69;68.58;102736.19;10303046;28;20106;-63
2023/12/17 00:52:06;;;;;;;12.90;5.00;;;;;;;7.61;68.45;102717.06;10314285;28;20054;-62
2023/12/17 00:57:08;;;;;;;11.38;5.07;;;;;;;7.73;68.04;102708.25;10313406;28;20142;-62
2023/12/17 01:02:09;;;;;;;15.63;5.10;;;;;;;7.78;67.76;102715.13;10318861;28;20047;-59
2023/12/17 01:07:10;;;;;;;16.00;5.60;;;;;;;7.88;67.69;102706.41;10319286;28;20110;-62
2023/12/17 01:12:12;;;;;;;13.70;5.50;;;;;;;7.81;67.70;102709.59;10318786;28;20045;-61
2023/12/17 01:17:13;;;;;;;11.80;6.35;;;;;;;7.82;67.88;102695.22;10318879;28;20061;-60
2023/12/17 01:22:15;;;;;;;14.93;5.78;;;;;;;7.86;67.53;102704.75;10320588;28;20041;-62
2023/12/17 01:27:16;;;;;;;15.40;5.38;;;;;;;7.93;67.84;102711.44;10316322;28;20043;-62
2023/12/17 01:32:18;;;;;;;14.10;5.32;;;;;;;7.98;67.99;102703.09;10317731;28;20061;-60
2023/12/17 01:37:19;;;;;;;12.18;4.93;;;;;;;7.88;67.77;102714.44;10316556;28;20063;-62
2023/12/17 01:42:21;;;;;;;12.93;5.03;;;;;;;7.81;67.88;102717.63;10317075;28;20078;-61
2023/12/17 01:47:23;;;;;;;14.73;5.05;;;;;;;7.90;67.80;102720.56;10316803;28;20151;-60
2023/12/17 01:52:24;;;;;;;15.07;6.38;;;;;;;7.78;68.11;102728.50;10293163;28;20039;-60
2023/12/17 01:57:26;;;;;;;13.07;5.38;;;;;;;7.77;67.64;102726.81;10316709;28;20159;-63
2023/12/17 02:02:27;;;;;;;14.52;5.70;;;;;;;7.71;67.71;102725.38;10320217;28;20054;-60
2023/12/17 02:07:29;;;;;;;11.52;4.93;;;;;;;7.66;68.18;102714.09;10317078;28;20153;-62
2023/12/17 02:12:30;;;;;;;11.30;5.20;;;;;;;7.53;68.17;102714.03;10315736;28;20149;-62
2023/12/17 02:17:32;;;;;;;13.05;5.22;;;;;;;7.41;67.87;102713.00;10319649;28;20099;-61
2023/12/17 02:22:34;;;;;;;9.95;5.28;;;;;;;7.32;68.70;102713.56;10316477;28;20043;-62
2023/12/17 02:27:36;;;;;;;14.13;6.40;;;;;;;7.27;68.36;102710.34;10318117;28;20078;-62
2023/12/17 02:32:38;;;;;;;17.02;6.43;;;;;;;7.31;67.93;102703.84;10315487;28;20058;-61
2023/12/17 02:37:39;;;;;;;13.25;5.28;;;;;;;7.34;67.62;102701.78;10312820;28;20548;-62
2023/12/17 02:42:42;;;;;;;17.92;5.35;;;;;;;7.41;67.28;102690.72;10314753;28;20591;-62
2023/12/17 02:47:43;;;;;;;13.43;6.03;;;;;;;7.32;67.87;102690.34;10314623;28;20046;-62
2023/12/17 02:52:45;;;;;;;12.65;5.55;;;;;;;7.34;67.86;102683.06;10315299;28;20051;-60
2023/12/17 02:57:47;;;;;;;14.80;6.05;;;;;;;7.24;68.10;102678.41;10314377;28;20043;-62
2023/12/17 03:02:50;;;;;;;18.20;6.03;;;;;;;7.21;68.05;102671.44;10315287;28;20047;-61
2023/12/17 03:07:52;;;;;;;14.55;5.88;;;;;;;7.23;67.74;102666.84;10312974;28;20039;-62
2023/12/17 03:12:53;;;;;;;13.80;5.03;;;;;;;7.25;67.45;102659.59;10313644;28;20047;-60
2023/12/17 03:17:54;;;;;;;14.20;5.95;;;;;;;7.23;67.85;102661.50;10312252;28;20035;-62
2023/12/17 03:22:56;;;;;;;19.63;6.50;;;;;;;7.20;67.93;102672.38;10315688;28;20066;-62
2023/12/17 03:27:57;;;;;;;15.38;5.80;;;;;;;7.14;67.92;102660.25;10310851;28;20054;-59
2023/12/17 03:32:59;;;;;;;15.32;6.03;;;;;;;7.16;67.83;102668.19;10308243;28;20047;-62
2023/12/17 03:38:01;;;;;;;15.18;7.03;;;;;;;7.25;67.78;102670.28;10296939;28;20210;-62
2023/12/17 03:43:02;;;;;;;16.77;6.18;;;;;;;7.36;67.50;102666.94;10314279;28;20102;-61
2023/12/17 03:48:05;;;;;;;10.93;6.00;;;;;;;7.41;67.67;102662.16;10312396;28;20366;-63
2023/12/17 03:53:10;;;;;;;16.40;6.65;;;;;;;7.39;67.56;102665.88;10311916;28;20051;-62
2023/12/17 03:58:12;;;;;;;22.05;7.28;;;;;;;7.40;68.06;102670.28;10312638;28;21207;-63
2023/12/17 04:03:13;;;;;;;14.88;7.00;;;;;;;7.34;68.06;102666.16;10315423;28;20062;-62
2023/12/17 04:08:14;;;;;;;13.93;6.40;;;;;;;7.16;68.52;102665.50;10314008;28;20053;-61
2023/12/17 04:13:16;;;;;;;15.18;6.55;;;;;;;7.12;67.76;102672.00;10313234;28;20078;-62
2023/12/17 04:18:17;;;;;;;15.50;6.13;;;;;;;7.11;68.09;102662.28;10278557;28;20042;-64
2023/12/17 04:23:19;;;;;;;22.27;6.75;;;;;;;7.25;68.17;102650.72;10274439;28;20145;-63
2023/12/17 04:28:20;;;;;;;15.07;6.05;;;;;;;7.21;67.52;102647.38;10271154;28;20051;-64
2023/12/17 04:33:22;;;;;;;16.60;6.05;;;;;;;7.16;67.80;102641.44;10271148;28;20828;-64
2023/12/17 04:38:24;;;;;;;15.43;7.00;;;;;;;7.13;67.83;102628.28;10273035;28;20447;-64
2023/12/17 04:43:26;;;;;;;15.48;5.68;;;;;;;6.98;68.67;102626.56;10272212;28;20051;-64
2023/12/17 04:48:27;;;;;;;20.60;6.63;;;;;;;7.03;68.89;102640.47;10276701;28;20039;-63
2023/12/17 04:53:29;;;;;;;15.70;5.47;;;;;;;6.99;68.19;102636.28;10282695;28;20041;-64
2023/12/17 04:58:30;;;;;;;15.30;6.00;;;;;;;7.02;68.71;102634.28;10273441;28;20145;-64
2023/12/17 05:03:32;;;;;;;17.20;6.75;;;;;;;6.98;69.00;102630.09;10255961;28;20147;-63
2023/12/17 05:08:33;;;;;;;17.13;6.45;;;;;;;6.96;68.74;102632.00;10279011;28;20045;-63
2023/12/17 05:13:35;;;;;;;16.15;5.90;;;;;;;6.94;68.91;102628.56;10277480;28;20069;-63
2023/12/17 05:18:36;;;;;;;14.15;7.03;;;;;;;6.91;68.58;102626.94;10279697;28;20050;-63
2023/12/17 05:23:38;;;;;;;18.70;6.53;;;;;;;6.90;69.45;102630.56;10279954;28;20054;-64
2023/12/17 05:28:41;;;;;;;16.45;7.40;;;;;;;6.94;69.29;102621.41;10295269;28;20066;-62
2023/12/17 05:33:46;;;;;;;14.38;6.40;;;;;;;7.08;68.33;102625.88;10298345;28;20082;-62
2023/12/17 05:38:48;;;;;;;19.85;7.38;;;;;;;7.02;68.81;102620.91;10300550;28;20038;-63
2023/12/17 05:43:49;;;;;;;14.77;7.35;;;;;;;7.02;69.10;102615.56;10304468;28;20047;-62
2023/12/17 05:48:50;;;;;;;21.02;6.97;;;;;;;7.07;68.64;102631.31;10308765;28;20049;-62
2023/12/17 05:53:52;;;;;;;18.88;7.18;;;;;;;6.95;68.71;102628.47;10293199;28;20265;-62
2023/12/17 05:58:53;;;;;;;17.88;6.95;;;;;;;6.91;69.65;102628.75;10304003;28;20046;-62
2023/12/17 06:03:55;;;;;;;16.00;7.43;;;;;;;7.02;69.10;102633.44;10299471;28;20051;-62
2023/12/17 06:08:56;;;;;;;15.27;6.68;;;;;;;7.00;68.76;102638.03;10279915;28;20034;-62
2023/12/17 06:13:58;;;;;;;24.85;10.18;;;;;;;7.01;69.54;102645.97;10292944;28;20050;-62
2023/12/17 06:18:59;;;;;;;13.15;7.03;;;;;;;6.99;68.89;102644.31;10295619;28;20822;-62
2023/12/17 06:24:02;;;;;;;18.23;7.95;;;;;;;7.02;69.43;102636.97;10291750;28;20042;-62
2023/12/17 06:29:04;;;;;;;21.65;9.52;;;;;;;7.06;69.06;102640.31;10293018;28;20047;-62
2023/12/17 06:34:06;;;;;;;29.60;9.80;;;;;;;6.97;70.11;102639.09;10293004;28;20526;-63
2023/12/17 06:39:09;;;;;;;28.42;10.55;;;;;;;6.98;69.24;102639.94;10293395;28;20085;-62
2023/12/17 06:44:11;;;;;;;28.00;10.15;;;;;;;6.98;69.20;102642.59;10291478;28;20046;-62
2023/12/17 06:49:12;;;;;;;20.15;8.73;;;;;;;6.85;69.95;102642.50;10292104;28;20054;-62
2023/12/17 06:54:14;;;;;;;23.50;10.90;;;;;;;6.84;69.42;102638.97;10288981;28;20046;-62
2023/12/17 06:59:15;;;;;;;26.05;9.73;;;;;;;6.84;70.36;102638.97;10285201;28;20042;-62
2023/12/17 07:04:17;;;;;;;21.05;9.45;;;;;;;6.86;69.55;102641.56;10289226;28;20054;-62
2023/12/17 07:09:18;;;;;;;29.90;10.02;;;;;;;6.86;70.16;102642.41;10287515;28;20050;-62
2023/12/17 07:14:20;;;;;;;25.65;9.40;;;;;;;6.66;70.66;102635.63;10289838;28;20042;-62
2023/12/17 07:19:21;;;;;;;21.08;10.27;;;;;;;6.65;70.65;102627.69;10282443;28;20046;-65
2023/12/17 07:24:23;;;;;;;31.35;11.10;;;;;;;6.63;70.17;102641.13;10273385;28;20050;-64
2023/12/17 07:29:24;;;;;;;29.15;11.65;;;;;;;6.74;70.22;102648.50;10273329;28;20051;-64
2023/12/17 07:34:26;;;;;;;27.65;10.48;;;;;;;6.83;70.61;102655.97;10272964;28;20050;-64
2023/12/17 07:39:27;;;;;;;29.90;11.82;;;;;;;6.74;70.83;102656.53;10275283;28;20498;-64
2023/12/17 07:44:30;;;;;;;25.90;11.77;;;;;;;6.74;70.76;102654.72;10277876;28;20038;-64
2023/12/17 07:49:32;;;;;;;23.92;9.60;;;;;;;6.64;70.64;102647.38;10273384;28;20059;-64
2023/12/17 07:54:33;;;;;;;25.05;10.23;;;;;;;6.73;70.06;102646.78;10274220;28;20070;-64
2023/12/17 07:59:34;;;;;;;27.20;11.13;;;;;;;6.73;70.96;102636.97;10276064;28;20046;-64
2023/12/17 08:04:37;;;;;;;33.30;12.15;;;;;;;6.73;70.29;102647.66;10274651;28;20498;-64
2023/12/17 08:09:39;;;;;;;30.55;10.77;;;;;;;6.75;71.09;102650.22;10274280;28;20130;-64
2023/12/17 08:14:41;;;;;;;34.65;11.27;;;;;;;6.90;70.42;102646.59;10274181;28;20054;-64
2023/12/17 08:19:43;;;;;;;26.15;10.80;;;;;;;6.95;70.40;102655.22;10273293;28;20042;-65
2023/12/17 08:24:44;;;;;;;27.35;11.50;;;;;;;7.21;70.07;102667.88;10280871;28;20049;-64
2023/12/17 08:29:47;;;;;;;28.83;10.38;;;;;;;7.33;70.69;102667.13;10283502;28;20047;-65
2023/12/17 08:34:49;;;;;;;25.75;11.45;;;;;;;7.41;70.20;102675.53;10256625;28;20129;-64
2023/12/17 08:39:52;;;;;;;31.42;11.32;;;;;;;7.51;70.03;102670.44;10278464;28;20054;-64
2023/12/17 08:44:53;;;;;;;26.27;11.32;;;;;;;7.57;70.76;102664.69;10279908;28;20043;-64
2023/12/17 08:49:56;;;;;;;32.25;10.23;;;;;;;7.52;70.68;102661.44;10278849;28;20097;-64
2023/12/17 08:54:58;;;;;;;32.05;11.30;;;;;;;7.32;70.70;102668.06;10284302;28;20053;-64
2023/12/17 08:59:59;;;;;;;27.08;10.27;;;;;;;7.27;70.60;102665.72;10299768;28;20068;-64
2023/12/17 09:05:04;;;;;;;43.00;13.13;;;;;;;7.30;71.36;102668.16;10319114;28;20047;-64
2023/12/17 09:10:06;;;;;;;38.55;10.18;;;;;;;7.31;71.52;102669.91;10318950;28;20050;-63
2023/12/17 09:15:07;;;;;;;41.45;13.55;;;;;;;7.37;70.74;102673.16;10320672;28;20047;-63
2023/12/17 09:20:10;;;;;;;42.83;15.43;;;;;;;7.39;71.08;102674.78;10319654;28;20043;-63
2023/12/17 09:25:12;;;;;;;32.97;11.32;;;;;;;7.27;71.27;102679.09;10306228;28;20062;-62
2023/12/17 09:30:13;;;;;;;32.58;9.40;;;;;;;7.30;72.07;102678.88;10304223;28;20047;-63
2023/12/17 09:35:16;;;;;;;30.83;10.35;;;;;;;7.27;71.76;102681.75;10305108;28;20129;-63
2023/12/17 09:40:20;;;;;;;28.05;9.57;;;;;;;7.41;71.95;102677.34;10305442;28;20051;-63
2023/12/17 09:45:21;;;;;;;32.30;9.02;;;;;;;7.42;72.03;102677.22;10310293;28;20061;-63
2023/12/17 09:50:27;;;;;;;30.48;8.65;;;;;;;7.55;71.35;102674.66;10298140;28;20061;-64
2023/12/17 09:55:28;;;;;;;28.42;9.35;;;;;;;7.44;71.51;102677.13;10312581;28;20114;-64
2023/12/17 10:00:31;;;;;;;37.78;12.23;;;;;;;7.48;71.64;102676.84;10309765;28;20045;-64
2023/12/17 10:05:32;;;;;;;27.45;8.85;;;;;;;7.54;71.91;102681.81;10288358;28;20082;-64
2023/12/17 10:10:34;;;;;;;23.60;8.98;;;;;;;7.64;71.67;102668.72;10269563;28;20569;-64
2023/12/17 10:15:39;;;;;;;34.22;10.25;;;;;;;7.54;72.26;102668.44;10274694;28;20051;-64
2023/12/17 10:20:40;;;;;;;26.63;8.88;;;;;;;7.48;72.19;102657.25;10271832;28;20043;-64
2023/12/17 10:25:43;;;;;;;29.63;8.82;;;;;;;7.50;71.94;102644.63;10272761;28;20047;-64
2023/12/17 10:30:47;;;;;;;34.60;10.35;;;;;;;7.52;71.93;102640.03;10274832;28;20070;-64
2023/12/17 10:35:48;;;;;;;27.38;9.70;;;;;;;7.47;72.28;102634.16;10258397;28;20050;-63
2023/12/17 10:40:51;;;;;;;27.88;9.60;;;;;;;7.44;72.42;102615.59;10267540;28;20054;-64
2023/12/17 10:45:54;;;;;;;25.23;8.65;;;;;;;7.58;72.41;102604.84;10263629;28;20042;-65
2023/12/17 10:50:56;;;;;;;32.42;9.57;;;;;;;7.51;72.37;102611.56;10263995;28;20090;-64
2023/12/17 10:55:59;;;;;;;25.27;8.98;;;;;;;7.54;72.11;102603.31;10273339;28;20047;-64
2023/12/17 11:01:01;;;;;;;31.55;9.15;;;;;;;7.53;72.25;102591.78;10272935;28;20058;-65
2023/12/17 11:06:04;;;;;;;32.50;12.52;;;;;;;7.67;71.71;102584.66;10267679;28;20047;-67
2023/12/17 11:11:06;;;;;;;31.23;12.18;;;;;;;7.58;72.31;102575.41;10268926;28;20058;-67
2023/12/17 11:16:20;;;;;;;26.90;10.60;;;;;;;7.61;72.11;102567.19;10269088;28;20043;-66
2023/12/17 11:21:22;;;;;;;31.73;13.88;;;;;;;7.68;71.78;102560.47;10246957;28;20049;-67
2023/12/17 11:26:23;;;;;;;25.60;9.27;;;;;;;7.59;72.17;102553.03;10260439;28;20434;-67
2023/12/17 11:31:25;;;;;;;23.77;9.77;;;;;;;7.60;71.91;102554.75;10291659;28;20051;-68
2023/12/17 11:36:28;;;;;;;24.02;10.52;;;;;;;7.61;72.31;102548.44;10276944;28;20065;-64
2023/12/17 11:41:30;;;;;;;25.52;10.15;;;;;;;7.75;71.85;102539.50;10262470;28;20490;-70
2023/12/17 11:46:31;;;;;;;26.20;9.63;;;;;;;7.86;71.66;102542.31;10259290;28;20393;-66
2023/12/17 11:51:34;;;;;;;24.20;9.85;;;;;;;7.81;71.10;102528.38;10282273;28;20057;-66
2023/12/17 11:56:36;;;;;;;22.60;8.65;;;;;;;7.90;71.37;102521.53;10267295;28;20134;-65
2023/12/17 12:01:37;;;;;;;24.17;9.85;;;;;;;8.03;70.92;102519.72;10290743;28;20046;-68
2023/12/17 12:06:39;;;;;;;23.88;10.10;;;;;;;7.97;71.25;102520.13;10291798;28;20058;-66
2023/12/17 12:11:40;;;;;;;25.90;9.85;;;;;;;8.03;70.96;102511.69;10288976;28;20078;-65
2023/12/17 12:16:43;;;;;;;21.75;8.32;;;;;;;7.99;70.92;102509.34;10281577;28;20118;-67
2023/12/17 12:21:48;;;;;;;21.42;9.77;;;;;;;8.05;70.88;102507.06;10285255;28;20073;-66
2023/12/17 12:26:50;;;;;;;25.65;9.50;;;;;;;7.84;71.26;102505.88;10277611;28;20043;-68
2023/12/17 12:31:55;;;;;;;23.42;10.23;;;;;;;7.84;71.01;102496.03;10283488;28;20098;-67
2023/12/17 12:36:56;;;;;;;22.35;9.18;;;;;;;7.86;71.09;102498.59;10297079;28;20046;-68
2023/12/17 12:41:57;;;;;;;24.55;9.13;;;;;;;7.72;70.96;102491.50;10280665;28;20062;-67
2023/12/17 12:46:59;;;;;;;21.13;9.18;;;;;;;7.79;71.10;102482.09;10297222;28;20407;-68
2023/12/17 12:52:00;;;;;;;25.65;9.63;;;;;;;7.79;71.19;102476.75;10290255;28;20585;-67
2023/12/17 12:57:02;;;;;;;21.65;7.78;;;;;;;8.00;70.79;102474.41;10286791;28;20584;-70
2023/12/17 13:02:03;;;;;;;26.08;9.13;;;;;;;7.75;71.14;102484.13;10286234;28;20065;-67
2023/12/17 13:07:05;;;;;;;21.73;8.15;;;;;;;7.88;70.60;102465.41;10281602;28;20046;-63
2023/12/17 13:12:06;;;;;;;21.63;8.38;;;;;;;8.04;70.78;102459.00;10281053;28;20039;-66
2023/12/17 13:17:08;;;;;;;22.58;8.55;;;;;;;8.14;70.54;102450.19;10275442;28;20053;-67
2023/12/17 13:22:09;;;;;;;19.13;6.88;;;;;;;8.04;70.56;102462.53;10271560;28;20402;-66
2023/12/17 13:27:11;;;;;;;18.50;6.53;;;;;;;7.99;70.96;102445.91;10276563;28;20051;-66
2023/12/17 13:32:13;;;;;;;19.45;6.97;;;;;;;8.02;70.88;102443.03;10271900;28;20043;-66
2023/12/17 13:37:15;;;;;;;16.95;5.95;;;;;;;7.84;71.01;102439.81;10278353;28;20121;-65
2023/12/17 13:42:16;;;;;;;20.52;7.03;;;;;;;7.78;70.99;102440.25;10278587;28;20057;-65
2023/12/17 13:47:18;;;;;;;29.17;8.35;;;;;;;7.86;70.80;102427.16;10268524;28;20047;-65
2023/12/17 13:52:19;;;;;;;25.85;8.75;;;;;;;7.90;70.85;102433.19;10272631;28;20055;-66
2023/12/17 13:57:21;;;;;;;27.63;8.35;;;;;;;7.77;70.92;102434.97;10267873;28;20058;-64
2023/12/17 14:02:25;;;;;;;28.45;9.95;;;;;;;7.82;70.90;102431.03;10275585;28;20070;-66
2023/12/17 14:07:26;;;;;;;27.85;9.70;;;;;;;7.87;70.50;102426.19;10272747;28;20051;-67
2023/12/17 14:12:28;;;;;;;24.40;9.38;;;;;;;7.70;71.44;102426.50;10270903;28;20047;-68
2023/12/17 14:17:29;;;;;;;27.92;9.85;;;;;;;7.78;70.70;102410.78;10269951;28;20086;-68
2023/12/17 14:22:31;;;;;;;27.05;8.70;;;;;;;7.60;71.03;102412.03;10275114;28;20098;-66
2023/12/17 14:27:35;;;;;;;30.75;11.23;;;;;;;7.47;71.04;102407.53;10265803;28;20055;-67
2023/12/17 14:32:36;;;;;;;36.03;12.80;;;;;;;7.35;71.56;102403.88;10272631;28;20047;-66
2023/12/17 14:37:38;;;;;;;34.70;11.88;;;;;;;7.31;71.82;102404.19;10277049;28;20055;-67
2023/12/17 14:42:40;;;;;;;34.70;12.15;;;;;;;7.42;71.18;102393.59;10277781;28;20108;-66
2023/12/17 14:47:42;;;;;;;34.33;11.00;;;;;;;7.34;71.44;102398.63;10271180;28;20057;-66
2023/12/17 14:52:44;;;;;;;35.03;12.00;;;;;;;7.34;71.36;102396.81;10275131;28;20046;-65
2023/12/17 14:57:45;;;;;;;34.20;10.52;;;;;;;7.23;71.56;102396.69;10276071;28;20051;-67
2023/12/17 15:02:48;;;;;;;35.25;11.30;;;;;;;7.08;72.50;102392.38;10276648;28;20043;-67
2023/12/17 15:07:49;;;;;;;43.40;13.02;;;;;;;7.06;72.49;102396.97;10273386;28;20148;-68
2023/12/17 15:12:50;;;;;;;42.10;13.20;;;;;;;6.97;72.68;102402.91;10271599;28;20051;-65
2023/12/17 15:17:52;;;;;;;33.90;10.80;;;;;;;6.85;72.13;102396.56;10298610;23;20077;-65
2023/12/17 15:22:54;;;;;;;34.10;10.38;;;;;;;6.88;72.40;102394.53;10313961;28;20494;-67
2023/12/17 15:27:55;;;;;;;33.28;9.80;;;;;;;6.89;72.85;102398.06;10314485;28;20038;-65
2023/12/17 15:32:57;;;;;;;33.10;9.95;;;;;;;6.88;72.38;102396.38;10311739;28;20589;-66
2023/12/17 15:37:59;;;;;;;33.15;9.73;;;;;;;6.86;72.60;102382.25;10315044;28;20070;-66
2023/12/17 15:43:01;;;;;;;32.80;9.07;;;;;;;6.68;72.61;102387.84;10311647;28;20051;-67
2023/12/17 15:48:02;;;;;;;29.15;8.70;;;;;;;6.70;72.87;102387.75;10308119;28;20070;-67
2023/12/17 15:53:04;;;;;;;29.70;9.77;;;;;;;6.75;73.03;102383.81;10311084;28;20048;-67
2023/12/17 15:58:06;;;;;;;28.25;10.10;;;;;;;6.71;73.15;102384.97;10310462;28;20066;-65
2023/12/17 16:03:07;;;;;;;40.60;10.25;;;;;;;6.62;73.56;102390.91;10308750;28;20053;-65
2023/12/17 16:08:09;;;;;;;40.55;10.02;;;;;;;6.67;72.96;102386.09;10312761;28;20050;-65
2023/12/17 16:13:10;;;;;;;32.83;8.98;;;;;;;6.69;72.92;102386.88;10312848;28;20038;-65
2023/12/17 16:18:12;;;;;;;39.78;9.95;;;;;;;6.63;73.28;102383.75;10295945;28;20070;-65
2023/12/17 16:23:13;;;;;;;38.50;9.95;;;;;;;6.60;73.96;102391.97;10278864;28;20108;-65
2023/12/17 16:28:15;;;;;;;28.00;10.13;;;;;;;6.66;73.34;102396.94;10283729;28;20054;-65
2023/12/17 16:33:16;;;;;;;31.35;8.15;;;;;;;6.64;73.12;102397.00;10277104;28;20058;-65
2023/12/17 16:38:18;;;;;;;19.77;7.28;;;;;;;6.52;74.00;102400.50;10275048;28;20050;-66
2023/12/17 16:43:19;;;;;;;27.20;8.05;;;;;;;6.44;74.38;102400.13;10302961;28;20057;-63
2023/12/17 16:48:22;;;;;;;30.17;9.15;;;;;;;6.46;74.24;102403.56;10297583;28;20122;-62
2023/12/17 16:53:23;;;;;;;27.55;7.75;;;;;;;6.48;74.50;102405.16;10287954;28;20058;-63
2023/12/17 16:58:25;;;;;;;33.45;9.07;;;;;;;6.43;75.08;102407.25;10296674;28;20118;-62
2023/12/17 17:03:26;;;;;;;34.10;9.20;;;;;;;6.44;74.01;102411.66;10296866;28;20437;-62
2023/12/17 17:08:28;;;;;;;30.52;8.93;;;;;;;6.42;74.91;102413.56;10300103;28;20130;-63
2023/12/17 17:13:29;;;;;;;32.92;9.88;;;;;;;6.42;74.71;102412.69;10309529;28;20050;-62
2023/12/17 17:18:31;;;;;;;34.35;10.00;;;;;;;6.43;74.65;102412.59;10315130;28;20061;-62
2023/12/17 17:23:32;;;;;;;35.58;11.55;;;;;;;6.47;74.04;102419.47;10312066;28;20056;-62
2023/12/17 17:28:35;;;;;;;34.15;11.63;;;;;;;6.49;74.47;102414.03;10307688;28;20043;-62
2023/12/17 17:33:40;;;;;;;44.80;13.73;;;;;;;6.48;74.99;102420.34;10308398;28;20118;-61
2023/12/17 17:38:42;;;;;;;48.33;14.10;;;;;;;6.43;74.85;102420.63;10306112;28;20050;-62
2023/12/17 17:43:43;;;;;;;43.47;13.75;;;;;;;6.49;74.97;102409.53;10304789;28;20051;-62
2023/12/17 17:48:45;;;;;;;47.83;16.17;;;;;;;6.63;74.96;102411.31;10299796;28;20058;-62
2023/12/17 17:53:49;;;;;;;55.45;15.23;;;;;;;6.61;75.34;102423.91;10290421;28;20133;-62
2023/12/17 17:58:50;;;;;;;55.38;16.23;;;;;;;6.77;74.13;102413.09;10298441;28;20050;-62
2023/12/17 18:03:52;;;;;;;47.35;15.32;;;;;;;6.80;74.66;102418.25;10301465;28;20038;-63
2023/12/17 18:08:54;;;;;;;38.95;14.20;;;;;;;6.89;74.31;102428.34;10308891;28;20042;-62
2023/12/17 18:13:55;;;;;;;50.97;16.88;;;;;;;6.80;74.73;102423.59;10295943;28;20142;-62
2023/12/17 18:18:57;;;;;;;62.50;19.40;;;;;;;6.69;75.07;102420.75;10292677;28;20050;-62
2023/12/17 18:23:58;;;;;;;48.95;16.35;;;;;;;6.77;74.98;102423.78;10303317;28;20101;-63
2023/12/17 18:29:00;;;;;;;53.95;19.73;;;;;;;6.75;74.95;102428.38;10285797;28;20438;-63
2023/12/17 18:34:01;;;;;;;51.20;18.48;;;;;;;6.83;74.75;102428.75;10288714;28;20552;-62
2023/12/17 18:39:03;;;;;;;53.28;18.50;;;;;;;6.85;75.37;102432.19;10305882;28;20494;-62
2023/12/17 18:44:06;;;;;;;51.55;18.33;;;;;;;6.80;74.57;102428.09;10292668;28;20050;-63
2023/12/17 18:49:08;;;;;;;47.10;19.10;;;;;;;6.86;75.14;102420.53;10300620;28;20392;-61
2023/12/17 18:54:10;;;;;;;48.85;18.92;;;;;;;6.93;74.57;102412.94;10303417;28;20409;-63
2023/12/17 18:59:11;;;;;;;50.42;18.95;;;;;;;6.94;74.60;102415.53;10302972;28;20057;-63
2023/12/17 19:04:13;;;;;;;47.08;19.17;;;;;;;6.84;75.22;102419.75;10297262;28;20057;-63
2023/12/17 19:09:15;;;;;;;44.72;18.48;;;;;;;6.93;74.80;102415.63;10299323;28;20057;-62
2023/12/17 19:14:16;;;;;;;48.15;17.63;;;;;;;7.05;74.27;102413.94;10309327;28;20046;-63
2023/12/17 19:19:18;;;;;;;49.55;19.48;;;;;;;7.19;74.47;102413.03;10295475;28;20070;-62
2023/12/17 19:24:19;;;;;;;59.83;20.85;;;;;;;7.22;74.12;102419.03;10306595;28;20047;-61
2023/12/17 19:29:23;;;;;;;53.90;19.23;;;;;;;7.25;73.94;102416.16;10284480;28;20050;-59
2023/12/17 19:34:25;;;;;;;55.70;20.67;;;;;;;7.12;73.81;102425.97;10277318;28;20050;-60
2023/12/17 19:39:26;;;;;;;45.50;17.45;;;;;;;7.09;73.89;102407.44;10279893;28;20047;-60
2023/12/17 19:44:28;;;;;;;52.80;20.05;;;;;;;7.02;74.59;102411.50;10276649;28;20058;-60
2023/12/17 19:49:29;;;;;;;50.35;21.50;;;;;;;7.06;74.01;102397.81;10282926;28;20047;-60
2023/12/17 19:54:35;;;;;;;55.33;20.52;;;;;;;7.11;74.09;102393.03;10274109;28;20417;-60
2023/12/17 19:59:36;;;;;;;50.78;19.08;;;;;;;7.06;74.50;102389.78;10279181;28;20141;-62
2023/12/17 20:04:38;;;;;;;52.15;18.58;;;;;;;7.06;74.24;102397.81;10273567;28;20053;-60
2023/12/17 20:09:40;;;;;;;46.60;17.63;;;;;;;7.07;73.91;102398.66;10274752;28;20038;-60
2023/12/17 20:14:41;;;;;;;47.83;18.45;;;;;;;6.99;74.44;102395.63;10278454;28;20046;-61
2023/12/17 20:19:43;;;;;;;47.53;17.17;;;;;;;6.97;73.43;102379.72;10289245;28;20051;-60
2023/12/17 20:24:44;;;;;;;46.30;18.08;;;;;;;7.00;73.72;102384.00;10290477;28;20042;-60
2023/12/17 20:29:46;;;;;;;50.65;19.48;;;;;;;6.88;73.86;102385.69;10294764;28;20046;-60
2023/12/17 20:34:47;;;;;;;53.53;19.63;;;;;;;6.89;74.21;102380.22;10280824;28;20054;-63
2023/12/17 20:39:49;;;;;;;49.88;18.77;;;;;;;6.90;73.68;102402.47;10284660;28;20069;-62
2023/12/17 20:44:50;;;;;;;52.75;21.55;;;;;;;6.98;74.18;102388.59;10276636;28;20052;-61
2023/12/17 20:49:53;;;;;;;50.35;20.38;;;;;;;7.07;73.93;102386.16;10290754;28;20039;-63
2023/12/17 20:54:55;;;;;;;49.90;18.77;;;;;;;7.17;72.92;102390.88;10286391;28;20179;-62
2023/12/17 21:00:08;;;;;;;44.17;18.75;;;;;;;7.10;73.58;102391.28;10293594;28;20042;-62
2023/12/17 21:05:09;;;;;;;45.97;18.80;;;;;;;7.07;73.69;102391.53;10269448;28;20046;-63
2023/12/17 21:10:12;;;;;;;52.40;17.80;;;;;;;7.03;73.86;102387.34;10297357;28;20054;-63
2023/12/17 21:15:15;;;;;;;54.67;18.92;;;;;;;7.07;73.78;102378.16;10273343;28;20069;-63
2023/12/17 21:20:16;;;;;;;50.92;19.77;;;;;;;7.08;73.26;102379.84;10292878;28;20668;-62
2023/12/17 21:25:18;;;;;;;53.25;16.83;;;;;;;7.06;73.36;102372.91;10292734;28;20078;-62
2023/12/17 21:30:19;;;;;;;52.50;18.13;;;;;;;6.89;74.31;102361.53;10290842;28;20491;-62
2023/12/17 21:35:21;;;;;;;51.47;17.95;;;;;;;6.87;73.96;102360.78;10283545;28;20102;-63
2023/12/17 21:40:22;;;;;;;48.10;17.95;;;;;;;6.82;73.85;102367.38;10284197;28;20058;-63
2023/12/17 21:45:24;;;;;;;49.58;17.85;;;;;;;6.78;73.74;102366.72;10290304;28;20514;-63
2023/12/17 21:50:25;;;;;;;62.05;21.23;;;;;;;6.69;74.33;102362.81;10287091;28;20097;-63
2023/12/17 21:55:27;;;;;;;49.72;17.90;;;;;;;6.70;73.90;102369.03;10290270;28;20073;-65
2023/12/17 22:00:28;;;;;;;44.28;18.38;;;;;;;6.67;73.25;102363.88;10282029;28;20038;-64
2023/12/17 22:05:30;;;;;;;45.08;17.23;;;;;;;6.68;73.47;102369.13;10282807;28;20046;-64
2023/12/17 22:10:32;;;;;;;59.25;19.23;;;;;;;6.77;73.88;102361.47;10278756;28;20048;-63
2023/12/17 22:15:34;;;;;;;53.05;18.90;;;;;;;6.79;73.71;102365.75;10281620;28;20105;-63
2023/12/17 22:20:35;;;;;;;49.58;18.58;;;;;;;6.74;73.92;102354.50;10279799;28;20038;-64
2023/12/17 22:25:39;;;;;;;49.08;18.42;;;;;;;6.69;73.77;102352.13;10286870;28;20586;-63
2023/12/17 22:30:41;;;;;;;54.03;18.38;;;;;;;6.74;73.91;102347.34;10286043;28;20053;-63
2023/12/17 22:35:43;;;;;;;55.50;19.83;;;;;;;6.73;73.89;102353.66;10274732;28;20715;-63
2023/12/17 22:40:44;;;;;;;53.92;20.10;;;;;;;6.69;73.82;102357.47;10287273;28;20058;-64
2023/12/17 22:45:46;;;;;;;52.33;18.92;;;;;;;6.69;73.88;102348.59;10281240;28;20379;-64
2023/12/17 22:50:47;;;;;;;44.45;17.48;;;;;;;6.72;73.50;102335.91;10278393;28;20042;-63
2023/12/17 22:55:49;;;;;;;55.17;19.38;;;;;;;6.51;73.63;102338.16;10295581;28;20039;-63
2023/12/17 23:00:52;;;;;;;41.17;18.92;;;;;;;6.48;73.94;102330.38;10288225;28;20046;-63